createdAt,value
2023-05-10T00:15:48.614Z,5.45
2023-05-10T00:19:33.042Z,5.13
2023-05-10T00:35:23.559Z,6.47
2023-05-10T00:42:59.725Z,5.80
2023-05-10T00:50:10.379Z,6.30
2023-05-10T00:52:40.870Z,6.40
2023-05-10T00:55:37.253Z,8.38
2023-05-10T01:03:27.296Z,7.90
2023-05-10T01:12:09.175Z,8.77
2023-05-10T01:15:47.749Z,9.27
2023-05-10T01:18:24.531Z,9.90
2023-05-10T01:21:17.125Z,9.48
2023-05-10T01:24:12.032Z,8.70
2023-05-10T01:27:16.007Z,8.80
2023-05-10T01:30:16.256Z,7.65
2023-05-10T01:33:14.662Z,9.35
2023-05-10T01:37:09.362Z,9.18
2023-05-10T01:40:29.465Z,9.40
2023-05-10T01:43:29.011Z,8.23
2023-05-10T01:55:19.325Z,9.57
2023-05-10T01:57:56.293Z,7.22
2023-05-10T02:04:29.447Z,8.52
2023-05-10T02:10:46.288Z,6.63
2023-05-10T02:13:16.509Z,12.27
2023-05-10T02:16:14.941Z,7.68
2023-05-10T02:19:18.695Z,14.13
2023-05-10T02:22:11.833Z,11.25
2023-05-10T02:25:10.416Z,6.07
2023-05-10T02:31:37.261Z,6.28
2023-05-10T02:35:08.221Z,8.07
2023-05-10T02:37:39.054Z,7.25
2023-05-10T02:43:35.693Z,8.50
2023-05-10T02:46:07.227Z,8.32
2023-05-10T02:48:49.512Z,9.63
2023-05-10T02:51:49.368Z,8.05
2023-05-10T02:54:34.261Z,8.90
2023-05-10T02:58:03.045Z,10.27
2023-05-10T03:10:05.522Z,9.95
2023-05-10T03:13:11.830Z,6.65
2023-05-10T03:19:38.624Z,7.00
2023-05-10T03:22:33.765Z,7.15
2023-05-10T03:25:53.708Z,8.93
2023-05-10T03:29:06.670Z,8.35
2023-05-10T03:32:35.136Z,6.63
2023-05-10T03:35:15.579Z,6.18
2023-05-10T03:37:44.872Z,9.13
2023-05-10T03:40:17.886Z,6.50
2023-05-10T03:43:12.641Z,8.65
2023-05-10T03:46:13.923Z,9.18
2023-05-10T03:48:42.933Z,10.23
2023-05-10T03:55:56.172Z,7.75
2023-05-10T03:58:25.026Z,8.65
2023-05-10T04:01:07.703Z,9.45
2023-05-10T04:04:08.310Z,7.68
2023-05-10T04:06:41.046Z,7.70
2023-05-10T04:09:22.618Z,9.05
2023-05-10T04:11:58.393Z,14.80
2023-05-10T04:14:35.297Z,10.95
2023-05-10T04:17:07.393Z,7.78
2023-05-10T04:19:37.441Z,9.23
2023-05-10T04:22:07.086Z,9.07
2023-05-10T04:24:49.172Z,11.13
2023-05-10T04:27:25.669Z,11.00
2023-05-10T04:30:03.046Z,12.80
2023-05-10T04:32:32.863Z,9.20
2023-05-10T04:35:06.541Z,13.25
2023-05-10T04:37:35.541Z,12.88
2023-05-10T04:40:07.733Z,11.57
2023-05-10T04:42:45.695Z,8.68
2023-05-10T04:45:17.589Z,11.18
2023-05-10T04:47:53.386Z,10.48
2023-05-10T04:50:33.897Z,12.50
2023-05-10T04:53:05.389Z,13.88
2023-05-10T04:55:34.043Z,10.77
2023-05-10T04:58:03.027Z,11.57
2023-05-10T05:00:32.402Z,10.57
2023-05-10T05:03:01.238Z,12.48
2023-05-10T05:05:33.719Z,11.23
2023-05-10T05:08:02.562Z,12.70
2023-05-10T05:10:31.148Z,12.55
2023-05-10T05:12:59.696Z,11.07
2023-05-10T05:15:32.714Z,11.50
2023-05-10T05:18:04.260Z,14.68
2023-05-10T05:20:35.906Z,15.85
2023-05-10T05:23:04.709Z,14.70
2023-05-10T05:25:36.285Z,16.10
2023-05-10T05:28:04.985Z,13.75
2023-05-10T05:30:47.273Z,12.25
2023-05-10T05:33:23.241Z,16.20
2023-05-10T05:35:59.235Z,17.70
2023-05-10T05:38:48.432Z,18.08
2023-05-10T05:41:28.217Z,24.08
2023-05-10T05:44:17.027Z,17.70
2023-05-10T05:47:11.150Z,17.85
2023-05-10T05:49:46.888Z,17.88
2023-05-10T05:52:28.148Z,16.58
2023-05-10T05:55:37.716Z,17.15
2023-05-10T05:58:08.970Z,20.02
2023-05-10T06:00:37.638Z,17.30
2023-05-10T06:03:28.998Z,17.33
2023-05-10T06:06:25.709Z,18.92
2023-05-10T06:09:17.930Z,17.13
2023-05-10T06:11:55.199Z,22.38
2023-05-10T06:18:04.202Z,17.77
2023-05-10T06:20:33.528Z,14.98
2023-05-10T06:23:06.150Z,16.92
2023-05-10T06:25:38.582Z,13.88
2023-05-10T06:28:07.088Z,14.82
2023-05-10T06:30:48.240Z,14.48
2023-05-10T06:33:29.858Z,10.60
2023-05-10T06:36:25.260Z,14.15
2023-05-10T06:39:12.805Z,12.25
2023-05-10T06:41:47.810Z,13.82
2023-05-10T06:44:16.743Z,16.77
2023-05-10T06:46:46.324Z,16.77
2023-05-10T06:49:26.376Z,18.08
2023-05-10T06:52:45.228Z,16.67
2023-05-10T06:55:52.513Z,12.52
2023-05-10T07:05:21.213Z,13.45
2023-05-10T07:07:54.952Z,12.85
2023-05-10T07:11:20.810Z,10.43
2023-05-10T07:13:57.743Z,16.75
2023-05-10T07:16:25.961Z,14.60
2023-05-10T07:18:56.700Z,11.18
2023-05-10T07:22:04.764Z,12.95
2023-05-10T07:24:54.051Z,14.15
2023-05-10T07:27:43.959Z,11.52
2023-05-10T07:30:59.482Z,12.48
2023-05-10T07:33:51.899Z,14.60
2023-05-10T07:36:26.690Z,12.52
2023-05-10T07:39:06.360Z,11.15
2023-05-10T07:41:38.679Z,9.63
2023-05-10T07:44:14.203Z,7.88
2023-05-10T07:46:48.644Z,10.20
2023-05-10T07:49:31.691Z,9.40
2023-05-10T07:52:01.501Z,9.10
2023-05-10T07:54:30.218Z,8.60
2023-05-10T07:57:56.775Z,7.72
2023-05-10T08:00:31.457Z,12.00
2023-05-10T08:03:12.342Z,9.27
2023-05-10T08:05:45.585Z,7.78
2023-05-10T08:08:14.371Z,14.30
2023-05-10T08:10:47.891Z,10.30
2023-05-10T08:13:24.099Z,7.75
2023-05-10T08:15:55.159Z,9.27
2023-05-10T08:18:28.756Z,12.38
2023-05-10T08:21:00.547Z,10.32
2023-05-10T08:23:31.765Z,8.93
2023-05-10T08:26:03.525Z,13.52
2023-05-10T08:28:47.377Z,9.27
2023-05-10T08:31:21.177Z,14.65
2023-05-10T08:33:59.590Z,12.77
2023-05-10T08:36:34.764Z,9.60
2023-05-10T08:39:16.203Z,6.90
2023-05-10T08:42:00.893Z,10.23
2023-05-10T08:44:30.465Z,9.88
2023-05-10T08:47:05.977Z,8.40
2023-05-10T08:49:40.273Z,12.57
2023-05-10T08:52:21.566Z,10.35
2023-05-10T08:54:53.296Z,9.32
2023-05-10T08:57:24.340Z,10.13
2023-05-10T08:59:56.019Z,9.43
2023-05-10T09:03:14.650Z,11.95
2023-05-10T09:05:45.773Z,7.82
2023-05-10T09:08:14.788Z,7.95
2023-05-10T09:10:44.781Z,8.63
2023-05-10T09:13:13.680Z,13.60
2023-05-10T09:17:08.941Z,9.75
2023-05-10T09:19:37.381Z,8.45
2023-05-10T09:22:07.174Z,7.57
2023-05-10T09:24:35.923Z,10.80
2023-05-10T09:27:05.057Z,8.70
2023-05-10T09:29:41.557Z,8.30
2023-05-10T09:32:09.714Z,7.72
2023-05-10T09:34:41.087Z,8.88
2023-05-10T09:37:10.595Z,8.27
2023-05-10T09:39:40.131Z,11.63
2023-05-10T09:42:10.758Z,9.32
2023-05-10T09:44:39.106Z,9.25
2023-05-10T09:47:07.481Z,8.05
2023-05-10T09:49:36.434Z,7.80
2023-05-10T09:52:09.625Z,10.60
2023-05-10T09:54:39.563Z,10.20
2023-05-10T09:57:08.026Z,9.10
2023-05-10T09:59:37.264Z,10.27
2023-05-10T10:02:08.773Z,12.77
2023-05-10T10:04:41.922Z,13.00
2023-05-10T10:07:12.003Z,10.43
2023-05-10T10:09:43.054Z,8.13
2023-05-10T10:12:19.610Z,7.25
2023-05-10T10:14:53.347Z,7.53
2023-05-10T10:17:31.271Z,10.77
2023-05-10T10:20:00.618Z,7.95
2023-05-10T10:22:28.965Z,8.38
2023-05-10T10:24:59.596Z,10.70
2023-05-10T10:27:36.509Z,7.80
2023-05-10T10:30:15.045Z,9.20
2023-05-10T10:33:02.678Z,7.18
2023-05-10T10:35:35.072Z,6.85
2023-05-10T10:38:03.264Z,11.20
2023-05-10T10:40:35.097Z,6.00
2023-05-10T10:43:24.973Z,7.03
2023-05-10T10:46:13.632Z,12.02
2023-05-10T10:48:42.567Z,9.10
2023-05-10T10:51:12.762Z,9.63
2023-05-10T10:53:43.414Z,6.32
2023-05-10T10:56:16.007Z,7.40
2023-05-10T10:58:52.243Z,9.85
2023-05-10T11:01:21.558Z,11.50
2023-05-10T11:04:19.834Z,5.18
2023-05-10T11:06:47.939Z,6.80
2023-05-10T11:09:15.986Z,5.38
2023-05-10T11:12:10.557Z,9.07
2023-05-10T11:14:38.671Z,9.23
2023-05-10T11:17:24.667Z,5.85
2023-05-10T11:20:09.410Z,7.85
2023-05-10T11:23:13.999Z,7.85
2023-05-10T11:25:45.976Z,4.72
2023-05-10T11:28:15.714Z,6.15
2023-05-10T11:30:45.947Z,5.57
2023-05-10T11:33:19.170Z,5.95
2023-05-10T11:35:47.561Z,6.38
2023-05-10T11:38:15.854Z,6.47
2023-05-10T11:40:44.123Z,5.82
2023-05-10T11:43:13.590Z,4.65
2023-05-10T11:45:44.774Z,7.93
2023-05-10T11:48:12.974Z,3.92
2023-05-10T11:50:41.274Z,4.82
2023-05-10T11:53:09.291Z,4.43
2023-05-10T11:55:37.398Z,4.68
2023-05-10T11:58:05.385Z,6.65
2023-05-10T12:00:34.051Z,5.28
2023-05-10T12:03:04.641Z,8.75
2023-05-10T12:05:35.223Z,6.43
2023-05-10T12:08:16.675Z,7.88
2023-05-10T12:10:44.838Z,5.38
2023-05-10T12:13:29.437Z,7.30
2023-05-10T12:19:25.080Z,6.00
2023-05-10T12:22:00.632Z,5.25
2023-05-10T12:24:28.838Z,6.55
2023-05-10T12:27:31.165Z,6.78
2023-05-10T12:30:21.436Z,8.10
2023-05-10T12:32:51.238Z,4.63
2023-05-10T12:35:52.479Z,5.50
2023-05-10T12:38:30.681Z,6.18
2023-05-10T12:40:59.791Z,4.55
2023-05-10T12:43:28.133Z,3.75
2023-05-10T12:45:56.372Z,4.50
2023-05-10T12:48:25.315Z,7.75
2023-05-10T12:50:54.842Z,7.63
2023-05-10T12:53:22.879Z,7.20
2023-05-10T12:55:50.826Z,8.57
2023-05-10T12:58:34.361Z,7.95
2023-05-10T13:01:04.059Z,4.45
2023-05-10T13:03:33.471Z,4.72
2023-05-10T13:06:03.422Z,5.13
2023-05-10T13:08:34.642Z,6.27
2023-05-10T13:11:07.745Z,7.20
2023-05-10T13:13:46.775Z,5.30
2023-05-10T13:16:26.698Z,5.07
2023-05-10T13:19:20.949Z,5.73
2023-05-10T13:21:51.099Z,7.82
2023-05-10T13:24:27.027Z,7.47
2023-05-10T13:26:55.666Z,4.90
2023-05-10T13:29:29.094Z,11.40
2023-05-10T13:32:38.981Z,7.60
2023-05-10T13:35:08.422Z,5.03
2023-05-10T13:37:38.798Z,3.95
2023-05-10T13:40:12.551Z,5.20
2023-05-10T13:42:46.355Z,2.53
2023-05-10T13:45:14.819Z,6.97
2023-05-10T13:47:43.111Z,18.55
2023-05-10T13:50:11.599Z,6.13
2023-05-10T13:52:40.937Z,27.88
2023-05-10T13:55:09.692Z,4.10
2023-05-10T13:57:37.951Z,9.45
2023-05-10T14:00:07.526Z,4.50
2023-05-10T14:03:28.121Z,3.88
2023-05-10T14:05:56.227Z,3.92
2023-05-10T14:08:35.260Z,4.70
2023-05-10T14:11:03.645Z,4.07
2023-05-10T14:13:57.276Z,5.55
2023-05-10T14:16:27.781Z,2.72
2023-05-10T14:18:55.944Z,4.97
2023-05-10T14:21:30.681Z,3.70
2023-05-10T14:24:00.134Z,4.75
2023-05-10T14:26:28.328Z,3.90
2023-05-10T14:33:53.659Z,2.50
2023-05-10T14:36:21.760Z,3.42
2023-05-10T14:38:49.867Z,3.70
2023-05-10T14:41:21.365Z,4.80
2023-05-10T14:43:49.430Z,3.30
2023-05-10T14:46:17.984Z,2.00
2023-05-10T14:48:46.000Z,5.03
2023-05-10T14:51:14.046Z,2.97
2023-05-10T14:53:42.207Z,4.72
2023-05-10T14:56:10.219Z,3.10
2023-05-10T14:58:39.685Z,2.38
2023-05-10T15:01:07.866Z,3.33
2023-05-10T15:03:36.787Z,2.25
2023-05-10T15:06:06.540Z,4.15
2023-05-10T15:08:34.622Z,3.20
2023-05-10T15:11:02.802Z,3.35
2023-05-10T15:13:30.926Z,6.63
2023-05-10T15:16:01.576Z,4.43
2023-05-10T15:20:59.476Z,3.92
2023-05-10T15:23:27.660Z,4.95
2023-05-10T15:25:56.804Z,8.25
2023-05-10T15:28:25.067Z,5.55
2023-05-10T15:30:53.306Z,4.35
2023-05-10T15:33:22.903Z,4.38
2023-05-10T15:35:54.622Z,5.93
2023-05-10T15:38:23.560Z,4.82
2023-05-10T15:40:51.599Z,3.50
2023-05-10T15:43:19.728Z,3.40
2023-05-10T15:45:47.996Z,5.45
2023-05-10T15:48:16.381Z,3.08
2023-05-10T15:50:45.966Z,1.98
2023-05-10T15:53:14.131Z,4.03
2023-05-10T15:55:42.437Z,2.65
2023-05-10T15:58:11.321Z,4.32
2023-05-10T16:00:39.941Z,3.63
2023-05-10T16:03:08.090Z,5.55
2023-05-10T16:05:36.174Z,4.97
2023-05-10T16:08:05.691Z,3.35
2023-05-10T16:10:34.303Z,3.70
2023-05-10T16:13:03.802Z,4.13
2023-05-10T16:15:32.034Z,4.20
2023-05-10T16:18:00.257Z,3.58
2023-05-10T16:20:30.019Z,4.78
2023-05-10T16:22:58.277Z,6.40
2023-05-10T16:25:27.858Z,2.90
2023-05-10T16:27:55.937Z,5.43
2023-05-10T16:30:24.612Z,6.18
2023-05-10T16:32:54.721Z,2.45
2023-05-10T16:35:23.738Z,2.20
2023-05-10T16:37:51.910Z,2.00
2023-05-10T16:40:20.683Z,2.47
2023-05-10T16:42:51.030Z,2.63
2023-05-10T16:45:19.450Z,3.00
2023-05-10T16:47:47.854Z,3.90
2023-05-10T16:50:23.538Z,3.15
2023-05-10T16:52:52.721Z,4.05
2023-05-10T16:55:21.108Z,12.60
2023-05-10T16:57:51.016Z,8.88
2023-05-10T17:00:20.934Z,9.80
2023-05-10T17:02:49.374Z,4.75
2023-05-10T17:05:17.684Z,6.65
2023-05-10T17:07:46.085Z,4.35
2023-05-10T17:10:14.762Z,2.92
2023-05-10T17:12:42.919Z,2.90
2023-05-10T17:15:13.210Z,2.80
2023-05-10T17:17:44.704Z,5.40
2023-05-10T17:20:15.653Z,5.35
2023-05-10T17:25:12.039Z,4.03
2023-05-10T17:27:40.410Z,6.70
2023-05-10T17:30:09.972Z,7.47
2023-05-10T17:32:40.020Z,6.50
2023-05-10T17:35:09.192Z,5.13
2023-05-10T17:37:37.998Z,4.65
2023-05-10T17:40:07.990Z,6.80
2023-05-10T17:42:36.484Z,5.30
2023-05-10T17:45:10.501Z,5.55
2023-05-10T17:48:28.980Z,4.13
2023-05-10T17:50:59.966Z,6.72
2023-05-10T17:53:32.876Z,4.22
2023-05-10T17:56:03.930Z,4.72
2023-05-10T17:58:32.260Z,7.38
2023-05-10T18:01:00.899Z,6.07
2023-05-10T18:03:30.566Z,4.40
2023-05-10T18:06:12.957Z,3.70
2023-05-10T18:08:41.641Z,3.45
2023-05-10T18:11:10.059Z,2.40
2023-05-10T18:13:41.596Z,4.28
2023-05-10T18:16:12.901Z,3.03
2023-05-10T18:18:42.035Z,5.28
2023-05-10T18:25:56.722Z,5.35
2023-05-10T18:28:25.906Z,3.23
2023-05-10T18:30:54.334Z,4.10
2023-05-10T18:33:22.901Z,4.30
2023-05-10T18:35:51.895Z,3.70
2023-05-10T18:38:20.663Z,7.35
2023-05-10T18:40:49.240Z,5.50
2023-05-10T18:43:19.302Z,5.45
2023-05-10T18:45:47.651Z,4.10
2023-05-10T18:48:16.062Z,5.38
2023-05-10T18:50:44.587Z,4.15
2023-05-10T18:53:15.136Z,4.90
2023-05-10T18:55:46.612Z,6.13
2023-05-10T18:58:19.438Z,5.65
2023-05-10T19:00:52.325Z,4.07
2023-05-10T19:03:21.189Z,5.07
2023-05-10T19:05:50.107Z,7.28
2023-05-10T19:08:18.432Z,6.30
2023-05-10T19:10:47.271Z,5.22
2023-05-10T19:13:18.591Z,7.28
2023-05-10T19:15:51.586Z,5.68
2023-05-10T19:18:21.443Z,6.90
2023-05-10T19:20:49.974Z,9.27
2023-05-10T19:23:18.400Z,5.38
2023-05-10T19:25:47.255Z,3.97
2023-05-10T19:28:15.689Z,7.60
2023-05-10T19:30:44.418Z,6.00
2023-05-10T19:33:14.451Z,7.97
2023-05-10T19:35:43.005Z,7.95
2023-05-10T19:38:11.643Z,5.93
2023-05-10T19:40:39.924Z,10.57
2023-05-10T19:43:08.745Z,6.28
2023-05-10T19:45:37.294Z,10.02
2023-05-10T19:48:07.447Z,8.18
2023-05-10T19:50:38.369Z,9.65
2023-05-10T19:56:07.050Z,8.30
2023-05-10T19:58:37.645Z,8.60
2023-05-10T20:01:08.137Z,9.98
2023-05-10T20:03:37.120Z,12.13
2023-05-10T20:06:07.307Z,9.90
2023-05-10T20:08:35.806Z,9.18
2023-05-10T20:11:04.620Z,11.68
2023-05-10T20:13:33.559Z,9.27
2023-05-10T20:16:02.747Z,11.35
2023-05-10T20:18:31.271Z,10.10
2023-05-10T20:21:01.684Z,7.57
2023-05-10T20:23:31.895Z,10.68
2023-05-10T20:26:00.252Z,10.80
2023-05-10T20:28:32.486Z,11.00
2023-05-10T20:31:02.075Z,7.63
2023-05-10T20:33:30.624Z,10.63
2023-05-10T20:35:59.083Z,14.23
2023-05-10T20:38:27.605Z,9.95
2023-05-10T20:40:57.598Z,9.52
2023-05-10T20:43:26.070Z,9.20
2023-05-10T20:45:54.794Z,7.07
2023-05-10T20:48:23.226Z,9.02
2023-05-10T20:50:51.951Z,5.43
2023-05-10T20:53:20.707Z,12.65
2023-05-10T20:55:48.815Z,6.57
2023-05-10T20:58:18.583Z,8.23
2023-05-10T21:00:48.549Z,5.03
2023-05-10T21:03:17.199Z,5.73
2023-05-10T21:05:45.460Z,4.68
2023-05-10T21:08:13.807Z,3.97
2023-05-10T21:10:41.955Z,5.82
2023-05-10T21:13:10.430Z,7.55
2023-05-10T21:15:40.001Z,5.53
2023-05-10T21:18:08.618Z,4.65
2023-05-10T21:20:37.061Z,4.20
2023-05-10T21:23:05.440Z,5.55
2023-05-10T21:25:37.881Z,3.15
2023-05-10T21:32:15.462Z,3.83
2023-05-10T21:34:43.819Z,3.88
2023-05-10T21:37:12.156Z,2.85
2023-05-10T21:39:43.202Z,10.93
2023-05-10T21:42:11.556Z,5.68
2023-05-10T21:44:39.854Z,5.63
2023-05-10T21:47:08.062Z,5.25
2023-05-10T21:49:37.491Z,2.97
2023-05-10T21:52:05.947Z,3.42
2023-05-10T21:54:35.759Z,4.93
2023-05-10T21:57:04.847Z,3.55
2023-05-10T21:59:33.150Z,4.00
2023-05-10T22:02:01.449Z,2.53
2023-05-10T22:04:35.825Z,7.07
2023-05-10T22:07:05.252Z,3.95
2023-05-10T22:09:34.836Z,3.20
2023-05-10T22:12:03.929Z,2.50
2023-05-10T22:14:32.500Z,2.75
2023-05-10T22:17:00.895Z,5.03
2023-05-10T22:19:29.106Z,6.10
2023-05-10T22:21:57.228Z,3.67
2023-05-10T22:24:27.128Z,5.47
2023-05-10T22:26:56.093Z,5.10
2023-05-10T22:29:24.853Z,5.07
2023-05-10T22:31:56.195Z,3.53
2023-05-10T22:34:25.583Z,3.20
2023-05-10T22:36:53.882Z,4.53
2023-05-10T22:39:21.949Z,4.30
2023-05-10T22:41:51.349Z,4.88
2023-05-10T22:44:19.410Z,5.07
2023-05-10T22:46:49.528Z,3.33
2023-05-10T22:49:21.053Z,7.95
2023-05-10T22:51:51.376Z,5.43
2023-05-10T22:54:19.775Z,4.65
2023-05-10T22:56:48.133Z,4.90
2023-05-10T22:59:17.948Z,7.00
2023-05-10T23:01:46.263Z,4.38
2023-05-10T23:04:14.472Z,6.80
2023-05-10T23:06:45.858Z,8.27
2023-05-10T23:09:15.993Z,7.95
2023-05-10T23:11:44.742Z,6.45
2023-05-10T23:14:13.025Z,5.13
2023-05-10T23:16:42.985Z,5.63
2023-05-10T23:19:11.326Z,7.47
2023-05-10T23:21:39.516Z,6.10
2023-05-10T23:24:08.612Z,3.33
2023-05-10T23:26:49.658Z,3.22
2023-05-10T23:29:17.663Z,2.70
2023-05-10T23:31:49.612Z,4.20
2023-05-10T23:34:17.761Z,2.88
2023-05-10T23:36:45.831Z,4.03
2023-05-10T23:39:14.127Z,13.15
2023-05-10T23:41:42.782Z,3.50
2023-05-10T23:44:10.986Z,6.18
2023-05-10T23:46:39.060Z,4.22
2023-05-10T23:49:08.578Z,4.00
2023-05-10T23:51:36.841Z,4.28
2023-05-10T23:54:08.712Z,2.47
2023-05-10T23:56:38.976Z,5.07
2023-05-10T23:59:07.074Z,3.10
